PWSweather.com
Personal Weather Stations
Station Observations
UISISLE1
Newport, Isle ofWight, ISLE OF WIGHT PO30 2JX

NewportIsle ofWight, ISLE OF WIGHT PO30 2JX

Lat: 50.72, Lon: -1.27

Elevation: 45

Station Type: Davis Vantage Pro Plus

http://www.isleofwightweather.co.uk

Latest ConditionsUpdated 11:00:12 AM GMT Wednesday, Dec 12, 2018
Currently Today's Max Today's Min Today's Average
Temperature 46.6°F8.1°C 47.5°F8.6°C 45.1°F7.3°C 46.2°F7.9°C
Dew Point 40.4°F4.7°C 43.8°F6.6°C 40.2°F4.6°C 41.8°F5.4°C
Winds 6.7 mph SE10.8 kmh SE 6.7 mph -10.8 kmh - - 1.7 mph 2.7 kmh
Wind Gusts 13.0 mph20.9 kmh 13.0 mph20.9 kmh - -
Humidity 79% 87% 79% 84%
Pressure 30.17 in1021.7 mb 30.17 in1021.7 mb 30.13 in1020.3 mb -
Hour Temp Dew Point Humidity Winds Wind Gusts Pressure Precip Precip Rate Daily Precip Total
11:00 AM 46.6°F8.1°C 40.4°F4.7°C 79% 6.7 mph SE10.8 kmh SE 13.0 mph20.9 kmh 30.17 in1021.7 mb - 0.00 in0.0 mm 0.00 in0.0 mm
10:45 AM 46.4°F8.0°C 40.5°F4.7°C 80% 2.4 mph E3.9 kmh E 2.0 mph3.2 kmh 30.17 in1021.7 mb - 0.00 in0.0 mm 0.00 in0.0 mm
10:30 AM 46.2°F7.9°C 40.7°F4.8°C 81% 2.5 mph E4.0 kmh E 7.0 mph11.3 kmh 30.17 in1021.7 mb - 0.00 in0.0 mm 0.00 in0.0 mm
10:15 AM 45.9°F7.7°C 40.7°F4.8°C 82% 4.6 mph ESE7.4 kmh ESE 5.0 mph8.0 kmh 30.17 in1021.7 mb - 0.00 in0.0 mm 0.00 in0.0 mm
10:00 AM 45.7°F7.6°C 40.9°F4.9°C 83% 6.0 mph SE9.7 kmh SE 10.0 mph16.1 kmh 30.16 in1021.3 mb - 0.00 in0.0 mm 0.00 in0.0 mm
09:45 AM 45.6°F7.6°C 41.0°F5.0°C 84% 3.3 mph SE5.3 kmh SE 6.0 mph9.7 kmh 30.17 in1021.7 mb - 0.00 in0.0 mm 0.00 in0.0 mm
09:30 AM 45.5°F7.5°C 41.3°F5.2°C 85% 2.8 mph SE4.5 kmh SE 6.0 mph9.7 kmh 30.17 in1021.7 mb - 0.00 in0.0 mm 0.00 in0.0 mm
09:15 AM 45.4°F7.4°C 41.5°F5.3°C 86% 5.7 mph SSE9.2 kmh SSE 10.0 mph16.1 kmh 30.16 in1021.3 mb - 0.00 in0.0 mm 0.00 in0.0 mm
09:00 AM 45.4°F7.4°C 41.5°F5.3°C 86% 4.4 mph ESE7.1 kmh ESE 7.0 mph11.3 kmh 30.16 in1021.3 mb - 0.00 in0.0 mm 0.00 in0.0 mm
08:45 AM 45.3°F7.4°C 41.4°F5.2°C 86% 0.2 mph S0.3 kmh S -- 30.16 in1021.3 mb - 0.00 in0.0 mm 0.00 in0.0 mm
08:30 AM 45.2°F7.3°C 41.3°F5.2°C 86% 2.7 mph SE4.3 kmh SE 6.0 mph9.7 kmh 30.16 in1021.3 mb - 0.00 in0.0 mm 0.00 in0.0 mm
08:15 AM 45.1°F7.3°C 40.9°F4.9°C 85% Calm Calm -- 30.16 in1021.3 mb - 0.00 in0.0 mm 0.00 in0.0 mm
08:00 AM 45.2°F7.3°C 41.0°F5.0°C 85% 0.5 mph E0.8 kmh E 5.0 mph8.0 kmh 30.16 in1021.3 mb - 0.00 in0.0 mm 0.00 in0.0 mm
07:45 AM 45.1°F7.3°C 40.6°F4.8°C 84% 2.5 mph ESE4.0 kmh ESE 6.0 mph9.7 kmh 30.16 in1021.3 mb - 0.00 in0.0 mm 0.00 in0.0 mm
07:30 AM 45.1°F7.3°C 40.2°F4.6°C 83% 1.8 mph S2.9 kmh S 5.0 mph8.0 kmh 30.16 in1021.3 mb - 0.00 in0.0 mm 0.00 in0.0 mm
07:15 AM 45.3°F7.4°C 40.4°F4.7°C 83% 2.1 mph SSE3.4 kmh SSE 8.0 mph12.9 kmh 30.16 in1021.3 mb - 0.00 in0.0 mm 0.00 in0.0 mm
07:00 AM 45.4°F7.4°C 40.2°F4.6°C 82% 3.4 mph SE5.5 kmh SE 9.0 mph14.5 kmh 30.16 in1021.3 mb - 0.00 in0.0 mm 0.00 in0.0 mm
06:45 AM 45.5°F7.5°C 40.3°F4.6°C 82% 2.1 mph SSE3.4 kmh SSE 6.0 mph9.7 kmh 30.15 in1021.0 mb - 0.00 in0.0 mm 0.00 in0.0 mm
06:30 AM 45.7°F7.6°C 40.8°F4.9°C 83% 1.7 mph E2.7 kmh E 1.0 mph1.6 kmh 30.15 in1021.0 mb - 0.00 in0.0 mm 0.00 in0.0 mm
06:15 AM 45.9°F7.7°C 41.0°F5.0°C 83% 5.0 mph SE8.0 kmh SE 5.0 mph8.0 kmh 30.15 in1021.0 mb - 0.00 in0.0 mm 0.00 in0.0 mm
06:00 AM 46.0°F7.8°C 41.1°F5.1°C 83% 0.2 mph S0.3 kmh S 4.0 mph6.4 kmh 30.14 in1020.7 mb - 0.00 in0.0 mm 0.00 in0.0 mm
05:45 AM 46.1°F7.8°C 40.9°F4.9°C 82% 1.4 mph SE2.3 kmh SE 4.0 mph6.4 kmh 30.14 in1020.7 mb - 0.00 in0.0 mm 0.00 in0.0 mm
05:30 AM 46.1°F7.8°C 40.9°F4.9°C 82% 0.8 mph SE1.3 kmh SE 2.0 mph3.2 kmh 30.14 in1020.7 mb - 0.00 in0.0 mm 0.00 in0.0 mm
05:15 AM 46.3°F7.9°C 41.1°F5.1°C 82% 0.3 mph SE0.5 kmh SE 2.0 mph3.2 kmh 30.14 in1020.7 mb - 0.00 in0.0 mm 0.00 in0.0 mm
05:00 AM 46.2°F7.9°C 41.0°F5.0°C 82% 1.7 mph ESE2.7 kmh ESE 4.0 mph6.4 kmh 30.14 in1020.7 mb - 0.00 in0.0 mm 0.00 in0.0 mm
04:45 AM 46.3°F7.9°C 41.7°F5.4°C 84% Calm Calm -- 30.13 in1020.3 mb - 0.00 in0.0 mm 0.00 in0.0 mm
04:30 AM 46.4°F8.0°C 41.8°F5.4°C 84% 0.1 mph SE0.2 kmh SE 4.0 mph6.4 kmh 30.14 in1020.7 mb - 0.00 in0.0 mm 0.00 in0.0 mm
04:15 AM 46.5°F8.1°C 41.9°F5.5°C 84% 0.6 mph S1.0 kmh S -- 30.14 in1020.7 mb - 0.00 in0.0 mm 0.00 in0.0 mm
04:00 AM 46.6°F8.1°C 42.3°F5.7°C 85% 1.9 mph ESE3.1 kmh ESE 2.0 mph3.2 kmh 30.14 in1020.7 mb - 0.00 in0.0 mm 0.00 in0.0 mm
03:45 AM 46.7°F8.2°C 42.4°F5.8°C 85% Calm Calm -- 30.14 in1020.7 mb - 0.00 in0.0 mm 0.00 in0.0 mm
03:30 AM 46.7°F8.2°C 42.7°F5.9°C 86% 0.4 mph ESE0.6 kmh ESE 2.0 mph3.2 kmh 30.15 in1021.0 mb - 0.00 in0.0 mm 0.00 in0.0 mm
03:15 AM 46.8°F8.2°C 42.8°F6.0°C 86% Calm Calm -- 30.15 in1021.0 mb - 0.00 in0.0 mm 0.00 in0.0 mm
03:00 AM 46.7°F8.2°C 42.7°F5.9°C 86% 3.0 mph ESE4.8 kmh ESE 7.0 mph11.3 kmh 30.15 in1021.0 mb - 0.00 in0.0 mm 0.00 in0.0 mm
02:45 AM 46.7°F8.2°C 42.8°F6.0°C 86% 0.6 mph SSE1.0 kmh SSE 4.0 mph6.4 kmh 30.16 in1021.3 mb - 0.00 in0.0 mm 0.00 in0.0 mm
02:30 AM 46.8°F8.2°C 42.8°F6.0°C 86% Calm Calm -- 30.16 in1021.3 mb - 0.00 in0.0 mm 0.00 in0.0 mm
02:15 AM 46.8°F8.2°C 42.9°F6.1°C 86% 0.1 mph E0.2 kmh E 4.0 mph6.4 kmh 30.16 in1021.3 mb - 0.00 in0.0 mm 0.00 in0.0 mm
02:00 AM 47.0°F8.3°C 42.7°F5.9°C 85% 0.4 mph ESE0.6 kmh ESE 1.0 mph1.6 kmh 30.16 in1021.3 mb - 0.00 in0.0 mm 0.00 in0.0 mm
01:45 AM 47.1°F8.4°C 42.8°F6.0°C 85% 1.5 mph SE2.4 kmh SE 2.0 mph3.2 kmh 30.16 in1021.3 mb - 0.00 in0.0 mm 0.00 in0.0 mm
01:30 AM 47.2°F8.4°C 43.2°F6.2°C 86% 1.1 mph SSE1.8 kmh SSE 6.0 mph9.7 kmh 30.15 in1021.0 mb - 0.00 in0.0 mm 0.00 in0.0 mm
01:15 AM 47.3°F8.5°C 43.3°F6.3°C 86% 0.6 mph SE1.0 kmh SE 1.0 mph1.6 kmh 30.15 in1021.0 mb - 0.00 in0.0 mm 0.00 in0.0 mm
01:00 AM 47.4°F8.6°C 43.5°F6.4°C 86% 1.0 mph ESE1.6 kmh ESE 1.0 mph1.6 kmh 30.16 in1021.3 mb - 0.00 in0.0 mm 0.00 in0.0 mm
12:45 AM 47.5°F8.6°C 43.8°F6.6°C 87% Calm Calm -- 30.16 in1021.3 mb - 0.00 in0.0 mm 0.00 in0.0 mm
12:30 AM 47.4°F8.6°C 43.7°F6.5°C 87% 0.1 mph SE0.2 kmh SE -- 30.16 in1021.3 mb - 0.00 in0.0 mm 0.00 in0.0 mm
12:15 AM 47.4°F8.6°C 43.7°F6.5°C 87% 0.2 mph SE0.3 kmh SE 1.0 mph1.6 kmh 30.17 in1021.7 mb - 0.00 in0.0 mm 0.00 in0.0 mm
12:00 AM 47.4°F8.6°C 43.7°F6.5°C 87% 0.7 mph SE1.1 kmh SE 4.0 mph6.4 kmh 30.16 in1021.3 mb - 0.00 in0.0 mm 0.00 in0.0 mm